sensor_id;sensor_type;location;lat;lon;timestamp;pressure;altitude;pressure_sealevel;temperature;humidity
26697;BME280;14312;52.614;13.496;2023-08-01T00:00:40;99465.25;;;22.10;63.44
26697;BME280;14312;52.614;13.496;2023-08-01T00:03:26;99459.81;;;22.10;63.79
26697;BME280;14312;52.614;13.496;2023-08-01T00:06:11;99449.66;;;22.07;63.85
26697;BME280;14312;52.614;13.496;2023-08-01T00:08:57;99442.31;;;22.08;64.01
26697;BME280;14312;52.614;13.496;2023-08-01T00:11:43;99447.97;;;22.03;64.03
26697;BME280;14312;52.614;13.496;2023-08-01T00:14:29;99442.47;;;21.99;64.27
26697;BME280;14312;52.614;13.496;2023-08-01T00:17:15;99442.78;;;21.98;64.46
26697;BME280;14312;52.614;13.496;2023-08-01T00:20:02;99436.81;;;21.92;64.50
26697;BME280;14312;52.614;13.496;2023-08-01T00:22:48;99430.50;;;21.88;64.87
26697;BME280;14312;52.614;13.496;2023-08-01T00:25:34;99422.69;;;21.86;65.37
26697;BME280;14312;52.614;13.496;2023-08-01T00:28:21;99413.56;;;21.79;65.50
26697;BME280;14312;52.614;13.496;2023-08-01T00:31:08;99409.06;;;21.71;65.73
26697;BME280;14312;52.614;13.496;2023-08-01T00:33:54;99409.66;;;21.64;66.27
26697;BME280;14312;52.614;13.496;2023-08-01T00:36:40;99417.13;;;21.55;66.38
26697;BME280;14312;52.614;13.496;2023-08-01T00:39:26;99407.09;;;21.43;67.06
26697;BME280;14312;52.614;13.496;2023-08-01T00:42:12;99395.25;;;21.36;67.49
26697;BME280;14312;52.614;13.496;2023-08-01T00:44:59;99381.38;;;21.25;67.80
26697;BME280;14312;52.614;13.496;2023-08-01T00:47:46;99380.94;;;21.23;68.44
26697;BME280;14312;52.614;13.496;2023-08-01T00:50:33;99373.25;;;21.13;68.69
26697;BME280;14312;52.614;13.496;2023-08-01T00:53:19;99357.47;;;21.03;69.20
26697;BME280;14312;52.614;13.496;2023-08-01T00:56:05;99365.81;;;20.98;69.54
26697;BME280;14312;52.614;13.496;2023-08-01T00:58:51;99365.59;;;20.91;70.11
26697;BME280;14312;52.614;13.496;2023-08-01T01:01:37;99377.78;;;20.85;70.00
26697;BME280;14312;52.614;13.496;2023-08-01T01:04:23;99363.69;;;20.79;70.55
26697;BME280;14312;52.614;13.496;2023-08-01T01:07:09;99375.06;;;20.73;70.40
26697;BME280;14312;52.614;13.496;2023-08-01T01:09:55;99364.91;;;20.69;70.44
26697;BME280;14312;52.614;13.496;2023-08-01T01:12:41;99376.44;;;20.66;70.59
26697;BME280;14312;52.614;13.496;2023-08-01T01:15:27;99369.44;;;20.65;70.78
26697;BME280;14312;52.614;13.496;2023-08-01T01:18:13;99359.25;;;20.62;70.91
26697;BME280;14312;52.614;13.496;2023-08-01T01:20:59;99356.09;;;20.60;70.82
26697;BME280;14312;52.614;13.496;2023-08-01T01:23:45;99347.22;;;20.60;70.85
26697;BME280;14312;52.614;13.496;2023-08-01T01:26:33;99328.59;;;20.58;70.73
26697;BME280;14312;52.614;13.496;2023-08-01T01:29:19;99315.50;;;20.60;70.88
26697;BME280;14312;52.614;13.496;2023-08-01T01:32:07;99300.41;;;20.59;71.00
26697;BME280;14312;52.614;13.496;2023-08-01T01:34:53;99291.13;;;20.60;71.06
26697;BME280;14312;52.614;13.496;2023-08-01T01:37:39;99288.44;;;20.60;71.35
26697;BME280;14312;52.614;13.496;2023-08-01T01:40:25;99278.75;;;20.59;71.49
26697;BME280;14312;52.614;13.496;2023-08-01T01:43:11;99283.59;;;20.54;71.81
26697;BME280;14312;52.614;13.496;2023-08-01T01:45:57;99293.97;;;20.52;71.70
26697;BME280;14312;52.614;13.496;2023-08-01T01:48:43;99290.03;;;20.49;72.06
26697;BME280;14312;52.614;13.496;2023-08-01T01:51:30;99295.34;;;20.46;72.15
26697;BME280;14312;52.614;13.496;2023-08-01T01:54:16;99291.38;;;20.43;72.36
26697;BME280;14312;52.614;13.496;2023-08-01T01:57:02;99281.69;;;20.42;72.35
26697;BME280;14312;52.614;13.496;2023-08-01T01:59:48;99283.25;;;20.43;72.62
26697;BME280;14312;52.614;13.496;2023-08-01T02:02:34;99277.50;;;20.45;72.78
26697;BME280;14312;52.614;13.496;2023-08-01T02:05:20;99273.56;;;20.42;72.65
26697;BME280;14312;52.614;13.496;2023-08-01T02:08:06;99256.53;;;20.42;72.63
26697;BME280;14312;52.614;13.496;2023-08-01T02:10:52;99253.50;;;20.43;72.74
26697;BME280;14312;52.614;13.496;2023-08-01T02:13:38;99243.78;;;20.42;72.35
26697;BME280;14312;52.614;13.496;2023-08-01T02:16:24;99228.00;;;20.44;72.60
26697;BME280;14312;52.614;13.496;2023-08-01T02:19:10;99231.06;;;20.43;72.41
26697;BME280;14312;52.614;13.496;2023-08-01T02:21:55;99228.91;;;20.48;72.25
26697;BME280;14312;52.614;13.496;2023-08-01T02:24:41;99224.28;;;20.49;72.29
26697;BME280;14312;52.614;13.496;2023-08-01T02:27:27;99222.81;;;20.51;72.56
26697;BME280;14312;52.614;13.496;2023-08-01T02:30:13;99222.81;;;20.51;72.51
26697;BME280;14312;52.614;13.496;2023-08-01T02:32:59;99212.41;;;20.53;72.64
26697;BME280;14312;52.614;13.496;2023-08-01T02:35:48;99225.94;;;20.53;72.81
26697;BME280;14312;52.614;13.496;2023-08-01T02:38:34;99215.50;;;20.52;72.70
26697;BME280;14312;52.614;13.496;2023-08-01T02:41:20;99220.44;;;20.50;72.66
26697;BME280;14312;52.614;13.496;2023-08-01T02:44:06;99224.59;;;20.47;72.68
26697;BME280;14312;52.614;13.496;2023-08-01T02:46:52;99211.19;;;20.51;72.69
26697;BME280;14312;52.614;13.496;2023-08-01T02:49:38;99205.00;;;20.50;72.82
26697;BME280;14312;52.614;13.496;2023-08-01T02:52:24;99199.66;;;20.54;72.86
26697;BME280;14312;52.614;13.496;2023-08-01T02:55:10;99211.66;;;20.53;72.78
26697;BME280;14312;52.614;13.496;2023-08-01T02:57:56;99198.88;;;20.53;72.79
26697;BME280;14312;52.614;13.496;2023-08-01T03:00:42;99191.91;;;20.52;72.71
26697;BME280;14312;52.614;13.496;2023-08-01T03:03:28;99192.81;;;20.56;72.79
26697;BME280;14312;52.614;13.496;2023-08-01T03:06:14;99191.22;;;20.55;72.97
26697;BME280;14312;52.614;13.496;2023-08-01T03:09:01;99181.31;;;20.59;72.97
26697;BME280;14312;52.614;13.496;2023-08-01T03:11:47;99174.31;;;20.58;72.87
26697;BME280;14312;52.614;13.496;2023-08-01T03:14:33;99172.81;;;20.61;72.77
26697;BME280;14312;52.614;13.496;2023-08-01T03:17:19;99189.19;;;20.64;72.84
26697;BME280;14312;52.614;13.496;2023-08-01T03:20:05;99177.56;;;20.64;72.69
26697;BME280;14312;52.614;13.496;2023-08-01T03:22:56;99165.28;;;20.66;72.65
26697;BME280;14312;52.614;13.496;2023-08-01T03:25:42;99162.31;;;20.71;72.55
26697;BME280;14312;52.614;13.496;2023-08-01T03:28:28;99162.31;;;20.71;72.20
26697;BME280;14312;52.614;13.496;2023-08-01T03:31:14;99168.59;;;20.76;72.27
26697;BME280;14312;52.614;13.496;2023-08-01T03:34:01;99159.28;;;20.73;72.04
26697;BME280;14312;52.614;13.496;2023-08-01T03:36:46;99154.28;;;20.75;72.28
26697;BME280;14312;52.614;13.496;2023-08-01T03:39:32;99147.72;;;20.76;72.20
26697;BME280;14312;52.614;13.496;2023-08-01T03:42:18;99141.53;;;20.76;71.98
26697;BME280;14312;52.614;13.496;2023-08-01T03:45:05;99142.31;;;20.76;72.02
26697;BME280;14312;52.614;13.496;2023-08-01T03:47:51;99148.53;;;20.77;71.82
26697;BME280;14312;52.614;13.496;2023-08-01T03:50:37;99148.53;;;20.77;72.03
26697;BME280;14312;52.614;13.496;2023-08-01T03:53:23;99143.31;;;20.84;71.93
26697;BME280;14312;52.614;13.496;2023-08-01T03:56:09;99140.59;;;20.84;71.84
26697;BME280;14312;52.614;13.496;2023-08-01T03:58:54;99139.03;;;20.83;71.74
26697;BME280;14312;52.614;13.496;2023-08-01T04:01:41;99141.72;;;20.83;71.85
26697;BME280;14312;52.614;13.496;2023-08-01T04:04:27;99147.84;;;20.80;71.87
26697;BME280;14312;52.614;13.496;2023-08-01T04:07:13;99140.94;;;20.82;72.04
26697;BME280;14312;52.614;13.496;2023-08-01T04:09:59;99134.06;;;20.85;72.04
26697;BME280;14312;52.614;13.496;2023-08-01T04:12:45;99128.66;;;20.85;71.93
26697;BME280;14312;52.614;13.496;2023-08-01T04:15:31;99131.81;;;20.87;72.05
26697;BME280;14312;52.614;13.496;2023-08-01T04:18:17;99134.06;;;20.85;71.99
26697;BME280;14312;52.614;13.496;2023-08-01T04:21:02;99137.66;;;20.89;71.99
26697;BME280;14312;52.614;13.496;2023-08-01T04:23:48;99134.25;;;20.92;71.91
26697;BME280;14312;52.614;13.496;2023-08-01T04:26:34;99122.63;;;20.91;72.18
26697;BME280;14312;52.614;13.496;2023-08-01T04:29:22;99128.84;;;20.92;71.87
26697;BME280;14312;52.614;13.496;2023-08-01T04:32:08;99125.00;;;20.93;72.00
26697;BME280;14312;52.614;13.496;2023-08-01T04:34:54;99124.31;;;20.96;71.88
26697;BME280;14312;52.614;13.496;2023-08-01T04:37:40;99115.03;;;20.97;71.70
26697;BME280;14312;52.614;13.496;2023-08-01T04:40:26;99118.19;;;20.99;71.64
26697;BME280;14312;52.614;13.496;2023-08-01T04:43:13;99113.22;;;21.01;71.39
26697;BME280;14312;52.614;13.496;2023-08-01T04:45:59;99110.59;;;21.04;71.63
26697;BME280;14312;52.614;13.496;2023-08-01T04:48:45;99110.53;;;21.01;71.44
26697;BME280;14312;52.614;13.496;2023-08-01T04:51:31;99108.25;;;21.03;71.38
26697;BME280;14312;52.614;13.496;2023-08-01T04:54:17;99105.09;;;21.01;71.42
26697;BME280;14312;52.614;13.496;2023-08-01T04:57:03;99092.00;;;21.03;71.37
26697;BME280;14312;52.614;13.496;2023-08-01T04:59:49;99095.13;;;21.05;71.45
26697;BME280;14312;52.614;13.496;2023-08-01T05:02:35;99090.84;;;21.04;71.19
26697;BME280;14312;52.614;13.496;2023-08-01T05:05:21;99076.19;;;21.05;71.19
26697;BME280;14312;52.614;13.496;2023-08-01T05:08:07;99077.41;;;21.07;71.43
26697;BME280;14312;52.614;13.496;2023-08-01T05:10:53;99082.03;;;21.07;71.36
26697;BME280;14312;52.614;13.496;2023-08-01T05:13:39;99077.41;;;21.07;71.32
26697;BME280;14312;52.614;13.496;2023-08-01T05:16:25;99068.50;;;21.07;71.28
26697;BME280;14312;52.614;13.496;2023-08-01T05:19:11;99067.38;;;21.08;71.36
26697;BME280;14312;52.614;13.496;2023-08-01T05:21:57;99067.38;;;21.08;71.33
26697;BME280;14312;52.614;13.496;2023-08-01T05:24:43;99062.13;;;21.15;70.98
26697;BME280;14312;52.614;13.496;2023-08-01T05:27:29;99065.97;;;21.14;71.40
26697;BME280;14312;52.614;13.496;2023-08-01T05:30:14;99058.97;;;21.13;71.40
26697;BME280;14312;52.614;13.496;2023-08-01T05:33:00;99052.44;;;21.14;71.42
26697;BME280;14312;52.614;13.496;2023-08-01T05:35:48;99052.19;;;21.19;71.32
26697;BME280;14312;52.614;13.496;2023-08-01T05:38:34;99048.34;;;21.20;71.16
26697;BME280;14312;52.614;13.496;2023-08-01T05:41:20;99044.59;;;21.25;71.22
26697;BME280;14312;52.614;13.496;2023-08-01T05:44:06;99041.53;;;21.26;71.05
26697;BME280;14312;52.614;13.496;2023-08-01T05:46:52;99041.97;;;21.28;70.93
26697;BME280;14312;52.614;13.496;2023-08-01T05:49:38;99037.00;;;21.30;71.23
26697;BME280;14312;52.614;13.496;2023-08-01T05:52:24;99040.13;;;21.32;71.21
26697;BME280;14312;52.614;13.496;2023-08-01T05:55:09;99030.88;;;21.33;71.07
26697;BME280;14312;52.614;13.496;2023-08-01T05:57:55;99025.88;;;21.35;71.18
26697;BME280;14312;52.614;13.496;2023-08-01T06:00:42;99026.34;;;21.37;70.99
26697;BME280;14312;52.614;13.496;2023-08-01T06:03:27;99029.47;;;21.39;71.05
26697;BME280;14312;52.614;13.496;2023-08-01T06:06:13;99021.78;;;21.41;70.86
26697;BME280;14312;52.614;13.496;2023-08-01T06:08:59;99030.34;;;21.43;70.80
26697;BME280;14312;52.614;13.496;2023-08-01T06:11:45;99027.19;;;21.41;70.67
26697;BME280;14312;52.614;13.496;2023-08-01T06:14:31;99035.75;;;21.43;70.74
26697;BME280;14312;52.614;13.496;2023-08-01T06:17:17;99043.44;;;21.41;70.85
26697;BME280;14312;52.614;13.496;2023-08-01T06:20:03;99028.75;;;21.42;70.68
26697;BME280;14312;52.614;13.496;2023-08-01T06:22:50;99027.19;;;21.41;70.91
26697;BME280;14312;52.614;13.496;2023-08-01T06:25:36;99028.06;;;21.45;70.79
26697;BME280;14312;52.614;13.496;2023-08-01T06:28:22;99025.00;;;21.47;70.55
26697;BME280;14312;52.614;13.496;2023-08-01T06:31:08;99028.16;;;21.49;70.89
26697;BME280;14312;52.614;13.496;2023-08-01T06:33:54;99029.63;;;21.46;70.83
26697;BME280;14312;52.614;13.496;2023-08-01T06:36:40;99032.78;;;21.48;70.77
26697;BME280;14312;52.614;13.496;2023-08-01T06:39:26;99025.09;;;21.51;70.68
26697;BME280;14312;52.614;13.496;2023-08-01T06:42:12;99016.63;;;21.52;70.70
26697;BME280;14312;52.614;13.496;2023-08-01T06:44:58;99025.94;;;21.55;70.71
26697;BME280;14312;52.614;13.496;2023-08-01T06:47:44;99005.56;;;21.61;70.25
26697;BME280;14312;52.614;13.496;2023-08-01T06:50:30;99030.69;;;21.58;70.31
26697;BME280;14312;52.614;13.496;2023-08-01T06:53:16;99019.03;;;21.57;70.49
26697;BME280;14312;52.614;13.496;2023-08-01T06:56:02;99017.56;;;21.60;70.40
26697;BME280;14312;52.614;13.496;2023-08-01T06:58:48;99023.69;;;21.57;70.25
26697;BME280;14312;52.614;13.496;2023-08-01T07:01:34;99012.91;;;21.60;70.27
26697;BME280;14312;52.614;13.496;2023-08-01T07:04:20;99022.09;;;21.56;70.28
26697;BME280;14312;52.614;13.496;2023-08-01T07:07:06;99029.09;;;21.57;70.50
26697;BME280;14312;52.614;13.496;2023-08-01T07:09:54;99018.25;;;21.57;70.60
26697;BME280;14312;52.614;13.496;2023-08-01T07:12:40;99019.13;;;21.61;70.51
26697;BME280;14312;52.614;13.496;2023-08-01T07:15:26;99023.84;;;21.64;70.35
26697;BME280;14312;52.614;13.496;2023-08-01T07:18:12;99016.16;;;21.66;70.60
26697;BME280;14312;52.614;13.496;2023-08-01T07:21:02;99003.44;;;21.70;70.48
26697;BME280;14312;52.614;13.496;2023-08-01T07:23:48;99007.78;;;21.74;70.34
26697;BME280;14312;52.614;13.496;2023-08-01T07:26:34;99004.03;;;21.79;70.31
26697;BME280;14312;52.614;13.496;2023-08-01T07:29:20;99011.09;;;21.83;70.14
26697;BME280;14312;52.614;13.496;2023-08-01T07:32:06;99005.78;;;21.87;70.31
26697;BME280;14312;52.614;13.496;2023-08-01T07:34:52;98992.81;;;21.96;69.99
26697;BME280;14312;52.614;13.496;2023-08-01T07:37:38;99002.25;;;22.02;70.07
26697;BME280;14312;52.614;13.496;2023-08-01T07:40:24;98977.59;;;22.11;69.68
26697;BME280;14312;52.614;13.496;2023-08-01T07:43:10;98976.13;;;22.13;69.70
26697;BME280;14312;52.614;13.496;2023-08-01T07:45:57;98970.84;;;22.20;69.70
26697;BME280;14312;52.614;13.496;2023-08-01T07:48:43;98976.41;;;22.27;69.75
26697;BME280;14312;52.614;13.496;2023-08-01T07:51:29;98979.69;;;22.37;69.29
26697;BME280;14312;52.614;13.496;2023-08-01T07:54:15;98974.38;;;22.44;69.53
26697;BME280;14312;52.614;13.496;2023-08-01T07:57:01;98972.22;;;22.53;68.95
26697;BME280;14312;52.614;13.496;2023-08-01T07:59:47;98966.22;;;22.63;68.27
26697;BME280;14312;52.614;13.496;2023-08-01T08:02:33;98982.53;;;22.66;67.72
26697;BME280;14312;52.614;13.496;2023-08-01T08:05:19;98980.34;;;22.72;67.72
26697;BME280;14312;52.614;13.496;2023-08-01T08:08:05;98983.50;;;22.74;67.90
26697;BME280;14312;52.614;13.496;2023-08-01T08:10:51;98975.84;;;22.80;68.38
26697;BME280;14312;52.614;13.496;2023-08-01T08:13:37;98980.63;;;22.86;68.35
26697;BME280;14312;52.614;13.496;2023-08-01T08:16:23;98988.91;;;22.93;68.02
26697;BME280;14312;52.614;13.496;2023-08-01T08:19:09;98975.44;;;23.00;67.83
26697;BME280;14312;52.614;13.496;2023-08-01T08:21:55;98978.97;;;23.04;67.60
26697;BME280;14312;52.614;13.496;2023-08-01T08:24:41;98974.13;;;23.17;67.25
26697;BME280;14312;52.614;13.496;2023-08-01T08:27:26;98976.91;;;23.21;66.78
26697;BME280;14312;52.614;13.496;2023-08-01T08:30:12;98987.91;;;23.28;66.26
26697;BME280;14312;52.614;13.496;2023-08-01T08:32:58;98986.75;;;23.29;66.67
26697;BME280;14312;52.614;13.496;2023-08-01T08:35:49;98994.59;;;23.34;66.58
26697;BME280;14312;52.614;13.496;2023-08-01T08:38:35;98991.88;;;23.34;66.21
26697;BME280;14312;52.614;13.496;2023-08-01T08:41:22;98991.53;;;23.35;66.24
26697;BME280;14312;52.614;13.496;2023-08-01T08:44:15;98989.59;;;23.36;65.89
26697;BME280;14312;52.614;13.496;2023-08-01T08:47:03;98984.97;;;23.40;66.04
26697;BME280;14312;52.614;13.496;2023-08-01T08:49:50;98983.84;;;23.41;66.67
26697;BME280;14312;52.614;13.496;2023-08-01T08:52:37;98967.66;;;23.48;67.13
26697;BME280;14312;52.614;13.496;2023-08-01T08:55:23;98976.72;;;23.59;66.81
26697;BME280;14312;52.614;13.496;2023-08-01T08:58:12;98978.91;;;23.73;66.06
26697;BME280;14312;52.614;13.496;2023-08-01T09:01:00;98973.16;;;23.81;65.59
26697;BME280;14312;52.614;13.496;2023-08-01T09:03:47;98959.97;;;23.84;65.54
26697;BME280;14312;52.614;13.496;2023-08-01T09:06:54;98967.50;;;23.94;65.20
26697;BME280;14312;52.614;13.496;2023-08-01T09:09:41;98969.03;;;23.95;65.12
26697;BME280;14312;52.614;13.496;2023-08-01T09:12:27;98969.53;;;24.00;65.16
26697;BME280;14312;52.614;13.496;2023-08-01T09:15:14;98962.97;;;24.05;64.30
26697;BME280;14312;52.614;13.496;2023-08-01T09:18:00;98957.59;;;24.08;64.42
26697;BME280;14312;52.614;13.496;2023-08-01T09:20:47;98947.16;;;24.17;64.42
26697;BME280;14312;52.614;13.496;2023-08-01T09:23:33;98947.69;;;24.27;64.07
26697;BME280;14312;52.614;13.496;2023-08-01T09:26:19;98959.53;;;24.41;63.40
26697;BME280;14312;52.614;13.496;2023-08-01T09:29:06;98949.13;;;24.50;63.11
26697;BME280;14312;52.614;13.496;2023-08-01T09:31:52;98949.59;;;24.59;63.53
26697;BME280;14312;52.614;13.496;2023-08-01T09:34:41;98952.44;;;24.74;63.60
26697;BME280;14312;52.614;13.496;2023-08-01T09:37:42;98940.88;;;24.87;62.26
26697;BME280;14312;52.614;13.496;2023-08-01T09:40:39;98935.56;;;24.98;62.13
26697;BME280;14312;52.614;13.496;2023-08-01T09:43:33;98934.47;;;25.10;61.13
26697;BME280;14312;52.614;13.496;2023-08-01T09:46:20;98930.22;;;25.12;60.51
26697;BME280;14312;52.614;13.496;2023-08-01T09:49:11;98932.97;;;25.16;58.56
26697;BME280;14312;52.614;13.496;2023-08-01T09:51:57;98932.91;;;25.09;58.92
26697;BME280;14312;52.614;13.496;2023-08-01T09:54:44;98949.97;;;24.99;58.81
26697;BME280;14312;52.614;13.496;2023-08-01T09:57:30;98948.34;;;24.90;58.69
26697;BME280;14312;52.614;13.496;2023-08-01T10:00:17;98947.44;;;24.79;58.97
26697;BME280;14312;52.614;13.496;2023-08-01T10:03:03;98961.00;;;24.72;59.56
26697;BME280;14312;52.614;13.496;2023-08-01T10:05:49;98941.09;;;24.65;59.49
26697;BME280;14312;52.614;13.496;2023-08-01T10:08:39;98941.03;;;24.57;59.43
26697;BME280;14312;52.614;13.496;2023-08-01T10:11:26;98956.53;;;24.53;59.38
26697;BME280;14312;52.614;13.496;2023-08-01T10:14:12;98940.13;;;24.46;59.91
26697;BME280;14312;52.614;13.496;2023-08-01T10:16:59;98959.09;;;24.39;59.56
26697;BME280;14312;52.614;13.496;2023-08-01T10:19:46;98954.72;;;24.31;59.87
26697;BME280;14312;52.614;13.496;2023-08-01T10:22:34;98955.41;;;24.21;60.05
26697;BME280;14312;52.614;13.496;2023-08-01T10:25:21;98945.16;;;24.11;60.08
26697;BME280;14312;52.614;13.496;2023-08-01T10:28:07;98946.97;;;24.00;60.28
26697;BME280;14312;52.614;13.496;2023-08-01T10:30:53;98945.34;;;23.95;60.34
26697;BME280;14312;52.614;13.496;2023-08-01T10:33:42;98937.88;;;23.89;60.59
26697;BME280;14312;52.614;13.496;2023-08-01T10:36:28;98941.66;;;23.80;61.16
26697;BME280;14312;52.614;13.496;2023-08-01T10:39:21;98943.56;;;23.76;61.23
26697;BME280;14312;52.614;13.496;2023-08-01T10:42:08;98933.72;;;23.68;61.83
26697;BME280;14312;52.614;13.496;2023-08-01T10:44:57;98940.22;;;23.60;61.74
26697;BME280;14312;52.614;13.496;2023-08-01T10:47:43;98941.66;;;23.51;62.11
26697;BME280;14312;52.614;13.496;2023-08-01T10:50:29;98959.78;;;23.43;62.56
26697;BME280;14312;52.614;13.496;2023-08-01T10:53:16;98992.22;;;23.32;62.69
26697;BME280;14312;52.614;13.496;2023-08-01T10:56:02;98985.38;;;23.16;62.39
26697;BME280;14312;52.614;13.496;2023-08-01T10:58:48;98986.97;;;22.94;62.91
26697;BME280;14312;52.614;13.496;2023-08-01T11:01:44;98988.13;;;22.74;63.41
26697;BME280;14312;52.614;13.496;2023-08-01T11:04:29;98976.09;;;22.52;64.27
26697;BME280;14312;52.614;13.496;2023-08-01T11:07:16;98988.97;;;22.36;64.77
26697;BME280;14312;52.614;13.496;2023-08-01T11:10:13;98985.97;;;22.21;65.42
26697;BME280;14312;52.614;13.496;2023-08-01T11:12:59;98996.09;;;22.05;65.49
26697;BME280;14312;52.614;13.496;2023-08-01T11:15:45;99004.78;;;21.95;65.83
26697;BME280;14312;52.614;13.496;2023-08-01T11:18:42;99011.19;;;21.87;66.21
26697;BME280;14312;52.614;13.496;2023-08-01T11:21:28;99010.59;;;21.78;66.62
26697;BME280;14312;52.614;13.496;2023-08-01T11:24:14;99019.44;;;21.75;66.84
26697;BME280;14312;52.614;13.496;2023-08-01T11:27:01;99012.47;;;21.74;66.66
26697;BME280;14312;52.614;13.496;2023-08-01T11:29:47;99010.88;;;21.73;66.68
26697;BME280;14312;52.614;13.496;2023-08-01T11:32:35;99008.53;;;21.71;66.54
26697;BME280;14312;52.614;13.496;2023-08-01T11:35:21;99025.59;;;21.72;66.62
26697;BME280;14312;52.614;13.496;2023-08-01T11:38:07;99014.00;;;21.75;66.59
26697;BME280;14312;52.614;13.496;2023-08-01T11:40:54;99019.88;;;21.77;66.92
26697;BME280;14312;52.614;13.496;2023-08-01T11:43:40;99023.47;;;21.81;66.90
26697;BME280;14312;52.614;13.496;2023-08-01T11:46:31;99027.81;;;21.85;67.03
26697;BME280;14312;52.614;13.496;2023-08-01T11:49:18;99027.63;;;21.94;66.96
26697;BME280;14312;52.614;13.496;2023-08-01T11:52:04;99020.47;;;22.02;67.12
26697;BME280;14312;52.614;13.496;2023-08-01T11:54:51;99024.53;;;22.11;67.09
26697;BME280;14312;52.614;13.496;2023-08-01T11:57:37;99016.63;;;22.22;67.01
26697;BME280;14312;52.614;13.496;2023-08-01T12:00:25;99007.19;;;22.35;66.69
26697;BME280;14312;52.614;13.496;2023-08-01T12:03:11;99021.75;;;22.46;66.56
26697;BME280;14312;52.614;13.496;2023-08-01T12:06:19;99028.22;;;22.61;65.97
26697;BME280;14312;52.614;13.496;2023-08-01T12:09:12;99025.28;;;22.70;65.67
26697;BME280;14312;52.614;13.496;2023-08-01T12:11:59;99017.66;;;22.75;65.45
26697;BME280;14312;52.614;13.496;2023-08-01T12:14:46;99021.66;;;22.81;65.30
26697;BME280;14312;52.614;13.496;2023-08-01T12:17:32;99027.22;;;22.88;65.28
26697;BME280;14312;52.614;13.496;2023-08-01T12:20:18;99030.47;;;22.97;65.79
26697;BME280;14312;52.614;13.496;2023-08-01T12:23:04;99031.47;;;23.09;65.45
26697;BME280;14312;52.614;13.496;2023-08-01T12:25:50;99030.84;;;23.19;65.03
26697;BME280;14312;52.614;13.496;2023-08-01T12:28:36;99031.81;;;23.30;64.20
26697;BME280;14312;52.614;13.496;2023-08-01T12:31:23;99033.09;;;23.36;64.02
26697;BME280;14312;52.614;13.496;2023-08-01T12:34:09;99037.50;;;23.44;63.85
26697;BME280;14312;52.614;13.496;2023-08-01T12:36:55;99033.69;;;23.49;63.67
26697;BME280;14312;52.614;13.496;2023-08-01T12:39:41;99029.16;;;23.56;63.72
26697;BME280;14312;52.614;13.496;2023-08-01T12:42:27;99024.97;;;23.62;63.30
26697;BME280;14312;52.614;13.496;2023-08-01T12:45:12;99028.16;;;23.68;62.77
26697;BME280;14312;52.614;13.496;2023-08-01T12:47:59;99037.19;;;23.75;63.73
26697;BME280;14312;52.614;13.496;2023-08-01T12:50:45;99030.38;;;23.89;63.50
26697;BME280;14312;52.614;13.496;2023-08-01T12:53:32;99037.59;;;24.04;63.11
26697;BME280;14312;52.614;13.496;2023-08-01T12:56:18;99038.56;;;24.18;62.49
26697;BME280;14312;52.614;13.496;2023-08-01T12:59:04;99034.75;;;24.23;61.35
26697;BME280;14312;52.614;13.496;2023-08-01T13:01:50;99039.81;;;24.21;61.10
26697;BME280;14312;52.614;13.496;2023-08-01T13:04:35;99033.13;;;24.18;61.19
26697;BME280;14312;52.614;13.496;2023-08-01T13:07:21;99037.09;;;24.21;61.68
26697;BME280;14312;52.614;13.496;2023-08-01T13:10:08;99035.59;;;24.27;62.02
26697;BME280;14312;52.614;13.496;2023-08-01T13:12:54;99034.91;;;24.34;61.33
26697;BME280;14312;52.614;13.496;2023-08-01T13:15:40;99034.63;;;24.42;61.00
26697;BME280;14312;52.614;13.496;2023-08-01T13:18:25;99040.09;;;24.46;61.36
26697;BME280;14312;52.614;13.496;2023-08-01T13:21:12;99034.34;;;24.51;60.56
26697;BME280;14312;52.614;13.496;2023-08-01T13:23:58;99032.06;;;24.56;61.36
26697;BME280;14312;52.614;13.496;2023-08-01T13:26:44;99029.88;;;24.73;61.44
26697;BME280;14312;52.614;13.496;2023-08-01T13:29:29;99038.59;;;24.85;60.60
26697;BME280;14312;52.614;13.496;2023-08-01T13:32:15;99049.63;;;24.96;59.81
26697;BME280;14312;52.614;13.496;2023-08-01T13:35:01;99055.91;;;25.00;59.44
26697;BME280;14312;52.614;13.496;2023-08-01T13:37:47;99049.69;;;25.03;59.01
26697;BME280;14312;52.614;13.496;2023-08-01T13:40:33;99042.31;;;25.04;59.48
26697;BME280;14312;52.614;13.496;2023-08-01T13:43:21;99053.66;;;25.09;59.35
26697;BME280;14312;52.614;13.496;2023-08-01T13:46:17;99031.97;;;25.23;57.93
26697;BME280;14312;52.614;13.496;2023-08-01T13:49:03;99038.31;;;25.34;59.49
26697;BME280;14312;52.614;13.496;2023-08-01T13:51:49;99040.78;;;25.54;59.29
26697;BME280;14312;52.614;13.496;2023-08-01T13:54:35;99036.25;;;25.72;58.83
26697;BME280;14312;52.614;13.496;2023-08-01T13:57:20;99038.31;;;25.89;58.25
26697;BME280;14312;52.614;13.496;2023-08-01T14:00:09;99044.25;;;26.05;57.74
26697;BME280;14312;52.614;13.496;2023-08-01T14:02:56;99035.28;;;26.08;56.73
26697;BME280;14312;52.614;13.496;2023-08-01T14:05:42;99033.34;;;26.09;55.62
26697;BME280;14312;52.614;13.496;2023-08-01T14:08:28;99035.66;;;26.03;55.99
26697;BME280;14312;52.614;13.496;2023-08-01T14:11:14;99027.44;;;25.96;56.06
26697;BME280;14312;52.614;13.496;2023-08-01T14:14:00;99022.34;;;25.91;55.60
26697;BME280;14312;52.614;13.496;2023-08-01T14:16:46;99026.97;;;25.87;55.06
26697;BME280;14312;52.614;13.496;2023-08-01T14:19:32;99024.63;;;25.82;55.46
26697;BME280;14312;52.614;13.496;2023-08-01T14:22:18;99058.13;;;25.79;54.93
26697;BME280;14312;52.614;13.496;2023-08-01T14:25:05;99023.84;;;25.78;55.17
26697;BME280;14312;52.614;13.496;2023-08-01T14:27:51;99021.47;;;25.80;55.38
26697;BME280;14312;52.614;13.496;2023-08-01T14:30:38;99023.47;;;25.87;56.15